Time;durP1;ratioP1;P1;durP2;ratioP2;P2;SDS_P1;SDS_P2;PMS_P1;PMS_P2;Temp;Humidity;BMP_temperature;BMP_pressure;BME280_temperature;BME280_humidity;BME280_pressure;Samples;Min_cycle;Max_cycle;Signal;HPM_P1;HPM_P2
2023/08/22 00:01:58;;;;;;;;;;;;;;;-144.99;nan;52232.03;5022358;28;20034;-65
2023/08/22 00:04:24;;;;;;;;;;;;;;;-144.99;nan;52264.66;5020765;28;19987;-65
2023/08/22 00:06:51;;;;;;;;;;;;;;;-144.99;nan;52223.88;5021382;28;19994;-64
2023/08/22 00:09:19;;;;;;;;;;;;;;;-144.99;nan;52244.28;5020142;28;20268;-65
2023/08/22 00:11:45;;;;;;;;;;;;;;;-144.99;nan;52223.88;5021453;28;20425;-64
2023/08/22 00:14:12;;;;;;;;;;;;;;;-144.99;nan;52262.63;5018115;28;19972;-65
2023/08/22 00:16:40;;;;;;;;;;;;;;;-144.99;nan;52260.56;5018823;28;20425;-69
2023/08/22 00:19:06;;;;;;;;;;;;;;;-144.99;nan;52209.63;5019188;28;19995;-68
2023/08/22 00:21:33;;;;;;;;;;;;;;;-144.99;nan;52256.50;5020723;28;19949;-70
2023/08/22 00:23:59;;;;;;;;;;;;;;;-144.99;nan;52252.44;5018069;28;19979;-70
2023/08/22 00:26:27;;;;;;;;;;;;;;;-144.99;nan;52258.53;5017660;28;20079;-68
2023/08/22 00:28:53;;;;;;;;;;;;;;;-144.99;nan;52240.19;5016144;28;20044;-68
2023/08/22 00:31:20;;;;;;;;;;;;;;;-144.99;nan;52240.19;5018615;28;20033;-68
2023/08/22 00:33:47;;;;;;;;;;;;;;;-144.99;nan;52240.19;5018276;28;19973;-68
2023/08/22 00:36:14;;;;;;;;;;;;;;;-144.99;nan;52264.66;5017506;28;20044;-68
2023/08/22 00:38:41;;;;;;;;;;;;;;;-144.99;nan;52240.19;5019863;28;20050;-68
2023/08/22 00:41:07;;;;;;;;;;;;;;;-144.99;nan;52270.78;5022288;28;20040;-66
2023/08/22 00:43:34;;;;;;;;;;;;;;;-144.99;nan;52244.28;5022480;28;20052;-66
2023/08/22 00:46:00;;;;;;;;;;;;;;;-144.99;nan;52256.50;5024391;28;20037;-66
2023/08/22 00:48:27;;;;;;;;;;;;;;;-144.99;nan;52285.03;5021810;28;19955;-64
2023/08/22 00:50:55;;;;;;;;;;;;;;;-144.99;nan;52246.31;5020975;28;19945;-64
2023/08/22 00:53:21;;;;;;;;;;;;;;;-144.99;nan;52283.00;5015984;28;20089;-65
2023/08/22 00:55:48;;;;;;;;;;;;;;;-144.99;nan;52240.19;5016492;28;20019;-65
2023/08/22 00:58:14;;;;;;;;;;;;;;;-144.99;nan;52264.66;5018074;28;20054;-66
2023/08/22 01:00:41;;;;;;;;;;;;;;;-144.99;nan;52191.28;5017965;28;19952;-68
2023/08/22 01:03:07;;;;;;;;;;;;;;;-144.99;nan;52268.72;5019029;28;20071;-66
2023/08/22 01:05:38;;;;;;;;;;;;;;;-144.99;nan;52232.03;5027845;28;20054;-69
2023/08/22 01:08:13;;;;;;;;;;;;;;;-144.99;nan;52268.72;5022561;28;20035;-66
2023/08/22 01:10:46;;;;;;;;;;;;;;;-144.99;nan;52232.03;5026079;28;19952;-66
2023/08/22 01:13:16;;;;;;;;;;;;;;;-144.99;nan;52236.13;5021020;28;19972;-67
2023/08/22 01:15:43;;;;;;;;;;;;;;;-144.99;nan;52236.13;5017940;28;20062;-67
2023/08/22 01:18:11;;;;;;;;;;;;;;;-144.99;nan;52199.44;5016350;28;19964;-66
2023/08/22 01:20:38;;;;;;;;;;;;;;;-144.99;nan;52260.56;5019661;28;19941;-65
2023/08/22 01:23:05;;;;;;;;;;;;;;;-144.99;nan;52252.44;5025449;28;20075;-68
2023/08/22 01:25:32;;;;;;;;;;;;;;;-144.99;nan;52217.78;5022700;28;19943;-67
2023/08/22 01:28:05;;;;;;;;;;;;;;;-144.99;nan;52264.66;5021948;28;20041;-68
2023/08/22 01:30:33;;;;;;;;;;;;;;;-144.99;nan;52238.16;5021985;28;20420;-72
2023/08/22 01:33:03;;;;;;;;;;;;;;;-144.99;nan;52244.28;5020825;28;20096;-70
2023/08/22 01:35:31;;;;;;;;;;;;;;;-144.99;nan;52280.97;5018097;28;19963;-71
2023/08/22 01:37:58;;;;;;;;;;;;;;;-144.99;nan;52246.31;5019070;28;19948;-68
2023/08/22 01:40:26;;;;;;;;;;;;;;;-144.99;nan;52232.03;5027130;28;19992;-68
2023/08/22 01:42:52;;;;;;;;;;;;;;;-144.99;nan;52244.28;5027234;28;20386;-68
2023/08/22 01:45:19;;;;;;;;;;;;;;;-144.99;nan;52264.66;5024619;28;20057;-65
2023/08/22 01:47:45;;;;;;;;;;;;;;;-144.99;nan;52258.53;5025044;28;19950;-66
2023/08/22 01:50:12;;;;;;;;;;;;;;;-144.99;nan;52232.03;5025762;28;20047;-68
2023/08/22 01:52:39;;;;;;;;;;;;;;;-144.99;nan;52215.75;5027641;28;20045;-68
2023/08/22 01:55:06;;;;;;;;;;;;;;;-144.99;nan;52280.97;5024912;28;20579;-68
2023/08/22 01:57:33;;;;;;;;;;;;;;;-144.99;nan;52280.97;5026512;28;19947;-68
2023/08/22 02:00:00;;;;;;;;;;;;;;;-144.99;nan;52248.34;5026044;28;20137;-68
2023/08/22 02:02:26;;;;;;;;;;;;;;;-144.99;nan;52256.50;5020330;28;20102;-68
2023/08/22 02:04:53;;;;;;;;;;;;;;;-144.99;nan;52260.56;5029017;28;19985;-68
2023/08/22 02:07:20;;;;;;;;;;;;;;;-144.99;nan;52246.31;5029194;28;19987;-69
2023/08/22 02:09:47;;;;;;;;;;;;;;;-144.99;nan;52252.44;5027154;28;19949;-70
2023/08/22 02:12:13;;;;;;;;;;;;;;;-144.99;nan;52285.03;5029395;28;19960;-68
2023/08/22 02:14:41;;;;;;;;;;;;;;;-144.99;nan;52252.44;5030441;28;19980;-68
2023/08/22 02:17:08;;;;;;;;;;;;;;;-144.99;nan;52213.69;5028683;28;20031;-69
2023/08/22 02:19:34;;;;;;;;;;;;;;;-144.99;nan;52252.44;5023807;28;19953;-64
2023/08/22 02:22:01;;;;;;;;;;;;;;;-144.99;nan;52236.13;5027547;28;20015;-62
2023/08/22 02:24:27;;;;;;;;;;;;;;;-144.99;nan;52240.19;5029937;28;19975;-61
2023/08/22 02:26:54;;;;;;;;;;;;;;;-144.99;nan;52268.72;5028833;28;20027;-61
2023/08/22 02:29:20;;;;;;;;;;;;;;;-144.99;nan;52203.50;5025549;28;19945;-62
2023/08/22 02:31:48;;;;;;;;;;;;;;;-144.99;nan;52227.97;5022496;28;19966;-62
2023/08/22 02:34:15;;;;;;;;;;;;;;;-144.99;nan;52244.28;5019818;28;19947;-64
2023/08/22 02:36:41;;;;;;;;;;;;;;;-144.99;nan;52289.13;5020683;28;20053;-62
2023/08/22 02:39:08;;;;;;;;;;;;;;;-144.99;nan;52250.38;5020455;28;20536;-62
2023/08/22 02:41:34;;;;;;;;;;;;;;;-144.99;nan;52260.56;5022168;28;20385;-62
2023/08/22 02:44:00;;;;;;;;;;;;;;;-144.99;nan;52285.03;5019224;28;19977;-64
2023/08/22 02:46:27;;;;;;;;;;;;;;;-144.99;nan;52244.28;5018949;28;19987;-63
2023/08/22 02:48:55;;;;;;;;;;;;;;;-144.99;nan;52268.72;5030022;28;19994;-62
2023/08/22 02:51:21;;;;;;;;;;;;;;;-144.99;nan;52280.97;5024723;28;20006;-64
2023/08/22 02:53:48;;;;;;;;;;;;;;;-144.99;nan;52236.13;5024554;28;19984;-63
2023/08/22 02:56:15;;;;;;;;;;;;;;;-144.99;nan;52268.72;5023165;28;20048;-64
2023/08/22 02:58:41;;;;;;;;;;;;;;;-144.99;nan;52256.50;5019360;28;20059;-64
2023/08/22 03:01:08;;;;;;;;;;;;;;;-144.99;nan;52289.13;5018324;28;20408;-64
2023/08/22 03:03:34;;;;;;;;;;;;;;;-144.99;nan;52268.72;5019745;28;20065;-64
2023/08/22 03:06:02;;;;;;;;;;;;;;;-144.99;nan;52244.28;5018089;28;20404;-63
2023/08/22 03:08:29;;;;;;;;;;;;;;;-144.99;nan;52289.13;5020187;28;19952;-63
2023/08/22 03:10:59;;;;;;;;;;;;;;;-144.99;nan;52285.03;5020050;28;19945;-63
2023/08/22 03:13:28;;;;;;;;;;;;;;;-144.99;nan;52232.03;5020094;28;20060;-63
2023/08/22 03:15:54;;;;;;;;;;;;;;;-144.99;nan;52244.28;5021157;28;20561;-61
2023/08/22 03:18:21;;;;;;;;;;;;;;;-144.99;nan;52252.44;5018901;28;19977;-60
2023/08/22 03:20:47;;;;;;;;;;;;;;;-144.99;nan;52236.13;5019324;28;19940;-60
2023/08/22 03:23:16;;;;;;;;;;;;;;;-144.99;nan;52260.56;5018802;28;20506;-61
2023/08/22 03:25:42;;;;;;;;;;;;;;;-144.99;nan;52223.88;5018890;28;20137;-60
2023/08/22 03:28:09;;;;;;;;;;;;;;;-144.99;nan;52244.28;5020683;28;20018;-65
2023/08/22 03:30:35;;;;;;;;;;;;;;;-144.99;nan;52240.19;5020068;28;20041;-67
2023/08/22 03:33:02;;;;;;;;;;;;;;;-144.99;nan;52264.66;5027588;28;19961;-65
2023/08/22 03:35:29;;;;;;;;;;;;;;;-144.99;nan;52227.97;5028417;28;19964;-65
2023/08/22 03:37:55;;;;;;;;;;;;;;;-144.99;nan;52289.13;5024985;28;19947;-65
2023/08/22 03:40:23;;;;;;;;;;;;;;;-144.99;nan;52278.91;5017205;28;20036;-64
2023/08/22 03:42:50;;;;;;;;;;;;;;;-144.99;nan;52262.63;5020209;28;20053;-64
2023/08/22 03:45:16;;;;;;;;;;;;;;;-144.99;nan;52266.69;5027774;28;19991;-64
2023/08/22 03:47:43;;;;;;;;;;;;;;;-144.99;nan;52244.28;5022808;28;20245;-68
2023/08/22 03:50:09;;;;;;;;;;;;;;;-144.99;nan;52260.56;5029113;28;19950;-69
2023/08/22 03:52:36;;;;;;;;;;;;;;;-144.99;nan;52232.03;5025935;28;20028;-68
2023/08/22 03:55:02;;;;;;;;;;;;;;;-144.99;nan;52268.72;5028668;28;20061;-69
2023/08/22 03:57:30;;;;;;;;;;;;;;;-144.99;nan;52246.31;5025721;28;19992;-70
2023/08/22 03:59:57;;;;;;;;;;;;;;;-144.99;nan;52268.72;5028069;28;19944;-70
2023/08/22 04:02:23;;;;;;;;;;;;;;;-144.99;nan;52250.38;5026199;28;20272;-63
2023/08/22 04:04:50;;;;;;;;;;;;;;;-144.99;nan;52264.66;5016008;28;19950;-63
2023/08/22 04:07:16;;;;;;;;;;;;;;;-144.99;nan;52256.50;5016115;28;20055;-63
2023/08/22 04:09:43;;;;;;;;;;;;;;;-144.99;nan;52268.72;5015730;28;20035;-62
2023/08/22 04:12:09;;;;;;;;;;;;;;;-144.99;nan;52276.88;5016528;28;20111;-62
2023/08/22 04:14:37;;;;;;;;;;;;;;;-144.99;nan;52276.88;5016489;28;20682;-65
2023/08/22 04:17:04;;;;;;;;;;;;;;;-144.99;nan;52260.56;5019735;28;20255;-63
2023/08/22 04:19:30;;;;;;;;;;;;;;;-144.99;nan;52246.31;5017514;28;19942;-63
2023/08/22 04:21:56;;;;;;;;;;;;;;;-144.99;nan;52293.19;5017889;28;20421;-64
2023/08/22 04:24:23;;;;;;;;;;;;;;;-144.99;nan;52283.00;5018306;28;19995;-63
2023/08/22 04:26:51;;;;;;;;;;;;;;;-144.99;nan;52264.66;5018559;28;20367;-62
2023/08/22 04:29:17;;;;;;;;;;;;;;;-144.99;nan;52236.13;5017420;28;20011;-66
2023/08/22 04:31:45;;;;;;;;;;;;;;;-144.99;nan;52244.28;5017695;28;20065;-65
2023/08/22 04:34:12;;;;;;;;;;;;;;;-144.99;nan;52258.53;5015547;28;20464;-73
2023/08/22 04:36:38;;;;;;;;;;;;;;;-144.99;nan;52256.50;5015827;28;19993;-66
2023/08/22 04:39:05;;;;;;;;;;;;;;;-144.99;nan;52299.31;5014246;28;19952;-66
2023/08/22 04:43:59;;;;;;;;;;;;;;;-144.99;nan;52240.19;4999124;28;20343;-66
2023/08/22 04:46:26;;;;;;;;;;;;;;;-144.99;nan;52256.50;4997540;28;20058;-66
2023/08/22 04:48:53;;;;;;;;;;;;;;;-144.99;nan;52232.03;4998209;28;20467;-66
2023/08/22 04:51:20;;;;;;;;;;;;;;;-144.99;nan;52252.44;4998149;28;20045;-66
2023/08/22 04:53:46;;;;;;;;;;;;;;;-144.99;nan;52219.81;5016717;28;19954;-67
2023/08/22 04:56:13;;;;;;;;;;;;;;;-144.99;nan;52236.13;5017140;28;19965;-68
2023/08/22 04:58:39;;;;;;;;;;;;;;;-144.99;nan;52285.03;5018350;28;19982;-68
2023/08/22 05:01:06;;;;;;;;;;;;;;;-144.99;nan;52280.97;5017569;28;20204;-68
2023/08/22 05:03:33;;;;;;;;;;;;;;;-144.99;nan;52219.81;5016979;28;20106;-67
2023/08/22 05:06:01;;;;;;;;;;;;;;;-144.99;nan;52268.72;5018135;28;20252;-66
2023/08/22 05:08:27;;;;;;;;;;;;;;;-144.99;nan;52268.72;5018545;28;20005;-66
2023/08/22 05:10:53;;;;;;;;;;;;;;;-144.99;nan;52285.03;5016746;28;19954;-66
2023/08/22 05:13:20;;;;;;;;;;;;;;;-144.99;nan;52287.06;5020512;28;20051;-69
2023/08/22 05:15:46;;;;;;;;;;;;;;;-144.99;nan;52270.78;5026821;28;19969;-70
2023/08/22 05:18:13;;;;;;;;;;;;;;;-144.99;nan;52244.28;5024359;28;20043;-70
2023/08/22 05:20:40;;;;;;;;;;;;;;;-144.99;nan;52227.97;5023421;28;20048;-70
2023/08/22 05:23:07;;;;;;;;;;;;;;;-144.99;nan;52223.88;5023701;28;20053;-69
2023/08/22 05:25:34;;;;;;;;;;;;;;;-144.99;nan;52252.44;5023526;28;20046;-70
2023/08/22 05:28:00;;;;;;;;;;;;;;;-144.99;nan;52254.47;5022909;28;19945;-70
2023/08/22 05:30:27;;;;;;;;;;;;;;;-144.99;nan;52252.44;5020416;28;20026;-70
2023/08/22 05:32:53;;;;;;;;;;;;;;;-144.99;nan;52227.97;5021560;28;20007;-70
2023/08/22 05:35:20;;;;;;;;;;;;;;;-144.99;nan;52256.50;4681052;28;10000212;-71
2023/08/22 05:37:46;;;;;;;;;;;;;;;-144.99;nan;52248.34;5028644;28;20013;-70
2023/08/22 05:40:14;;;;;;;;;;;;;;;-144.99;nan;52264.66;5024056;28;20416;-70
2023/08/22 05:42:41;;;;;;;;;;;;;;;-144.99;nan;52248.34;5023892;28;20074;-70
2023/08/22 05:45:08;;;;;;;;;;;;;;;-144.99;nan;52207.59;5021792;28;19958;-70
2023/08/22 05:47:35;;;;;;;;;;;;;;;-144.99;nan;52248.34;5024661;28;20429;-70
2023/08/22 05:50:03;;;;;;;;;;;;;;;-144.99;nan;52240.19;5029217;28;20126;-71
2023/08/22 05:52:29;;;;;;;;;;;;;;;-144.99;nan;52280.97;5028643;28;19968;-70
2023/08/22 05:54:56;;;;;;;;;;;;;;;-144.99;nan;52276.88;5030444;28;20003;-70
2023/08/22 05:57:24;;;;;;;;;;;;;;;-144.99;nan;52236.13;5028856;28;20361;-69
2023/08/22 05:59:50;;;;;;;;;;;;;;;-144.99;nan;52236.13;5024967;28;20029;-70
2023/08/22 06:02:17;;;;;;;;;;;;;;;-144.99;nan;52199.44;5022985;28;20381;-69
2023/08/22 06:04:44;;;;;;;;;;;;;;;-144.99;nan;52211.66;5028161;28;19977;-70
2023/08/22 06:07:11;;;;;;;;;;;;;;;-144.99;nan;52236.13;5023127;28;19959;-69
2023/08/22 06:09:37;;;;;;;;;;;;;;;-144.99;nan;52232.03;5023437;28;19961;-69
2023/08/22 06:12:04;;;;;;;;;;;;;;;-144.99;nan;52215.75;5022272;28;20001;-69
2023/08/22 06:14:32;;;;;;;;;;;;;;;-144.99;nan;52250.38;5020714;28;20003;-70
2023/08/22 06:16:58;;;;;;;;;;;;;;;-144.99;nan;52203.50;5027384;28;20363;-70
2023/08/22 06:19:25;;;;;;;;;;;;;;;-144.99;nan;52207.59;5022651;28;20041;-70
2023/08/22 06:21:51;;;;;;;;;;;;;;;-144.99;nan;52209.63;5025844;28;19961;-72
2023/08/22 06:24:18;;;;;;;;;;;;;;;-144.99;nan;52227.97;5024869;28;20040;-70
2023/08/22 06:26:44;;;;;;;;;;;;;;;-144.99;nan;52248.34;5025775;28;19958;-70
2023/08/22 06:29:11;;;;;;;;;;;;;;;-144.99;nan;52236.13;5020956;28;20013;-70
2023/08/22 06:31:39;;;;;;;;;;;;;;;-144.99;nan;52213.69;5019297;28;20050;-71
2023/08/22 06:34:05;;;;;;;;;;;;;;;-144.99;nan;52232.03;5021478;28;20322;-70
2023/08/22 06:36:32;;;;;;;;;;;;;;;-144.99;nan;52201.47;5026207;28;19965;-70
2023/08/22 06:38:58;;;;;;;;;;;;;;;-144.99;nan;52215.75;5028164;28;20340;-71
2023/08/22 06:41:25;;;;;;;;;;;;;;;-144.99;nan;52248.34;5027953;28;20365;-70
2023/08/22 06:43:51;;;;;;;;;;;;;;;-144.99;nan;52207.59;5022694;28;20001;-70
2023/08/22 06:46:21;;;;;;;;;;;;;;;-144.99;nan;52187.19;5020273;28;19953;-72
2023/08/22 06:48:49;;;;;;;;;;;;;;;-144.99;nan;52215.75;5026900;28;20283;-70
2023/08/22 06:51:16;;;;;;;;;;;;;;;-144.99;nan;52191.28;5020065;28;20016;-70
2023/08/22 06:53:42;;;;;;;;;;;;;;;-144.99;nan;52191.28;5024417;28;20323;-70
2023/08/22 06:56:10;;;;;;;;;;;;;;;-144.99;nan;52199.44;5028350;28;20076;-70
2023/08/22 06:58:37;;;;;;;;;;;;;;;-144.99;nan;52201.47;5022549;28;20043;-70
2023/08/22 07:01:05;;;;;;;;;;;;;;;-144.99;nan;52225.94;5025888;28;20031;-70
2023/08/22 07:03:32;;;;;;;;;;;;;;;-144.99;nan;52174.97;5022158;28;19966;-72
2023/08/22 07:06:00;;;;;;;;;;;;;;;-144.99;nan;52207.59;5027846;28;19974;-71
2023/08/22 07:08:27;;;;;;;;;;;;;;;-144.99;nan;52174.97;5022809;28;20209;-72
2023/08/22 07:10:58;;;;;;;;;;;;;;;-144.99;nan;52183.13;5028027;28;19950;-72
2023/08/22 07:13:25;;;;;;;;;;;;;;;-144.99;nan;52179.06;5021642;28;19967;-71
2023/08/22 07:15:51;;;;;;;;;;;;;;;-144.99;nan;52177.00;5027663;28;19990;-70
2023/08/22 07:18:17;;;;;;;;;;;;;;;-144.99;nan;52154.59;5021857;28;19991;-71
2023/08/22 07:20:45;;;;;;;;;;;;;;;-144.99;nan;52162.75;5028279;28;19992;-71
2023/08/22 07:23:13;;;;;;;;;;;;;;;-144.99;nan;52160.72;5022534;28;20066;-71
2023/08/22 07:25:40;;;;;;;;;;;;;;;-144.99;nan;52166.81;5027868;28;20396;-70
2023/08/22 07:28:08;;;;;;;;;;;;;;;-144.99;nan;52183.13;5026555;28;20250;-70
2023/08/22 07:30:34;;;;;;;;;;;;;;;-144.99;nan;52150.53;5025651;28;19950;-70
2023/08/22 07:33:01;;;;;;;;;;;;;;;-144.99;nan;52179.06;5028571;28;19994;-72
2023/08/22 07:35:29;;;;;;;;;;;;;;;-144.99;nan;52138.28;5017874;28;20346;-71
2023/08/22 07:37:56;;;;;;;;;;;;;;;-144.99;nan;52170.91;5019412;28;19965;-73
2023/08/22 07:40:24;;;;;;;;;;;;;;;-144.99;nan;52142.38;5022388;28;19952;-71
2023/08/22 07:42:50;;;;;;;;;;;;;;;-144.99;nan;52160.72;5026705;28;20139;-71
2023/08/22 07:45:17;;;;;;;;;;;;;;;-144.99;nan;52195.34;5020820;28;19994;-73
2023/08/22 07:47:43;;;;;;;;;;;;;;;-144.99;nan;52158.66;5023383;28;20098;-72
2023/08/22 07:50:10;;;;;;;;;;;;;;;-144.99;nan;52134.22;5028364;28;20030;-72
2023/08/22 07:52:36;;;;;;;;;;;;;;;-144.99;nan;52166.81;5041159;28;19969;-71
2023/08/22 07:55:03;;;;;;;;;;;;;;;-144.99;nan;52174.97;5016605;28;19985;-72
2023/08/22 07:57:31;;;;;;;;;;;;;;;-144.99;nan;52162.75;5026895;28;19976;-71
2023/08/22 07:59:57;;;;;;;;;;;;;;;-144.99;nan;52138.28;5022400;28;19939;-72
2023/08/22 08:02:24;;;;;;;;;;;;;;;-144.99;nan;52166.81;5023241;28;19969;-71
2023/08/22 08:04:50;;;;;;;;;;;;;;;-144.99;nan;52179.06;5025315;28;20420;-71
2023/08/22 08:07:17;;;;;;;;;;;;;;;-144.99;nan;52126.06;5026194;28;20452;-71
2023/08/22 08:09:43;;;;;;;;;;;;;;;-144.99;nan;52166.81;5026974;28;19996;-71
2023/08/22 08:12:10;;;;;;;;;;;;;;;-144.99;nan;52174.97;5016461;28;19997;-71
2023/08/22 08:14:38;;;;;;;;;;;;;;;-144.99;nan;52138.28;5027328;28;20007;-72
2023/08/22 08:17:04;;;;;;;;;;;;;;;-144.99;nan;52170.91;5021243;28;20067;-72
2023/08/22 08:19:31;;;;;;;;;;;;;;;-144.99;nan;52160.72;5025094;28;20461;-71
2023/08/22 08:21:57;;;;;;;;;;;;;;;-144.99;nan;52126.06;5024123;28;20061;-72
2023/08/22 08:24:24;;;;;;;;;;;;;;;-144.99;nan;52134.22;5018107;28;20328;-73
2023/08/22 08:26:51;;;;;;;;;;;;;;;-144.99;nan;52134.22;5026273;28;20210;-71
2023/08/22 08:29:17;;;;;;;;;;;;;;;-144.99;nan;52109.75;5026262;28;19959;-72
2023/08/22 08:31:47;;;;;;;;;;;;;;;-144.99;nan;52113.84;5025568;28;20067;-72
2023/08/22 08:34:13;;;;;;;;;;;;;;;-144.99;nan;52150.53;5024626;28;20073;-72
2023/08/22 08:36:40;;;;;;;;;;;;;;;-144.99;nan;52109.75;5024606;28;19968;-72
2023/08/22 08:39:06;;;;;;;;;;;;;;;-144.99;nan;52132.19;5025899;28;20477;-71
2023/08/22 08:41:34;;;;;;;;;;;;;;;-144.99;nan;52138.28;5023884;28;20032;-71
2023/08/22 08:44:01;;;;;;;;;;;;;;;-144.99;nan;52109.75;5025679;28;19986;-72
2023/08/22 08:46:29;;;;;;;;;;;;;;;-144.99;nan;52109.75;5024660;28;20081;-71
2023/08/22 08:48:57;;;;;;;;;;;;;;;-144.99;nan;52126.06;5009288;28;19978;-71
2023/08/22 08:51:23;;;;;;;;;;;;;;;-144.99;nan;52126.06;5032880;28;20004;-71
2023/08/22 08:53:51;;;;;;;;;;;;;;;-144.99;nan;52069.00;5029323;28;20032;-72
2023/08/22 08:56:17;;;;;;;;;;;;;;;-144.99;nan;52089.38;5022768;28;20061;-71
2023/08/22 08:58:44;;;;;;;;;;;;;;;-144.99;nan;52126.06;5026214;28;19942;-71
2023/08/22 09:01:11;;;;;;;;;;;;;;;-144.99;nan;52097.53;5026427;28;19951;-72
2023/08/22 09:03:38;;;;;;;;;;;;;;;-144.99;nan;52113.84;5026584;28;20056;-73
2023/08/22 09:06:06;;;;;;;;;;;;;;;-144.99;nan;52134.22;5020360;28;20005;-72
2023/08/22 09:08:32;;;;;;;;;;;;;;;-144.99;nan;52146.44;5031509;28;20109;-71
2023/08/22 09:10:59;;;;;;;;;;;;;;;-144.99;nan;52101.59;5026167;28;20430;-71
2023/08/22 09:13:26;;;;;;;;;;;;;;;-144.99;nan;52146.44;5029509;28;20255;-72
2023/08/22 09:15:58;;;;;;;;;;;;;;;-144.99;nan;52097.53;5031045;28;19944;-71
2023/08/22 09:18:24;;;;;;;;;;;;;;;-144.99;nan;52103.66;5017692;28;20337;-73
2023/08/22 09:20:51;;;;;;;;;;;;;;;-144.99;nan;52089.38;5029183;28;19948;-72
2023/08/22 09:23:27;;;;;;;;;;;;;;;-144.99;nan;52105.69;5029747;28;20089;-72
2023/08/22 09:25:53;;;;;;;;;;;;;;;-144.99;nan;52093.44;5031366;28;20386;-73
2023/08/22 09:28:20;;;;;;;;;;;;;;;-144.99;nan;52093.44;5026434;28;19956;-71
2023/08/22 09:30:47;;;;;;;;;;;;;;;-144.99;nan;52138.28;5032609;28;19986;-73
2023/08/22 09:33:13;;;;;;;;;;;;;;;-144.99;nan;52101.59;5031510;28;20057;-73
2023/08/22 09:35:40;;;;;;;;;;;;;;;-144.99;nan;52109.75;5021604;28;19999;-72
2023/08/22 09:38:08;;;;;;;;;;;;;;;-144.99;nan;52095.50;5026156;28;20414;-72
2023/08/22 09:40:36;;;;;;;;;;;;;;;-144.99;nan;52056.78;5026649;28;20064;-71
2023/08/22 09:43:03;;;;;;;;;;;;;;;-144.99;nan;52040.47;5024407;28;20005;-74
2023/08/22 09:45:31;;;;;;;;;;;;;;;-144.99;nan;52064.91;5028400;28;20130;-71
2023/08/22 09:47:58;;;;;;;;;;;;;;;-144.99;nan;52032.31;5029865;28;19951;-72
2023/08/22 09:50:26;;;;;;;;;;;;;;;-144.99;nan;52064.91;5041687;28;19998;-71
2023/08/22 09:52:54;;;;;;;;;;;;;;;-144.99;nan;52052.69;5031574;28;20009;-73
2023/08/22 09:55:21;;;;;;;;;;;;;;;-144.99;nan;52034.34;5024629;28;20403;-71
2023/08/22 09:57:49;;;;;;;;;;;;;;;-144.99;nan;52040.47;5032090;28;20036;-71
2023/08/22 10:00:16;;;;;;;;;;;;;;;-144.99;nan;52044.53;5022533;28;19989;-71
2023/08/22 10:02:43;;;;;;;;;;;;;;;-144.99;nan;52003.78;5029979;28;20044;-71
2023/08/22 10:05:10;;;;;;;;;;;;;;;-144.99;nan;52028.22;5023619;28;20025;-72
2023/08/22 10:07:37;;;;;;;;;;;;;;;-144.99;nan;52052.69;5024870;28;19993;-70
2023/08/22 10:10:05;;;;;;;;;;;;;;;-144.99;nan;52052.69;5029586;28;20018;-71
2023/08/22 10:12:33;;;;;;;;;;;;;;;-144.99;nan;52030.28;5020984;28;20045;-71
2023/08/22 10:15:04;;;;;;;;;;;;;;;-144.99;nan;52050.66;5028210;28;20382;-70
2023/08/22 10:17:33;;;;;;;;;;;;;;;-144.99;nan;52036.38;5026468;28;20066;-69
2023/08/22 10:20:00;;;;;;;;;;;;;;;-144.99;nan;51999.69;5028924;28;20358;-71
2023/08/22 10:22:31;;;;;;;;;;;;;;;-144.99;nan;52022.13;5027460;28;20402;-71
2023/08/22 10:25:02;;;;;;;;;;;;;;;-144.99;nan;51999.69;5024685;28;20073;-70
2023/08/22 10:27:29;;;;;;;;;;;;;;;-144.99;nan;52044.53;5022646;28;19953;-70
2023/08/22 10:30:10;;;;;;;;;;;;;;;-144.99;nan;52020.09;5031424;28;19953;-72
2023/08/22 10:32:38;;;;;;;;;;;;;;;-144.99;nan;51963.03;5023124;28;20263;-70
2023/08/22 10:35:29;;;;;;;;;;;;;;;-144.99;nan;51975.25;5025194;28;20041;-70
2023/08/22 10:37:55;;;;;;;;;;;;;;;-144.99;nan;51958.94;5020382;28;20214;-70
2023/08/22 10:40:27;;;;;;;;;;;;;;;-144.99;nan;51967.09;5033014;28;20033;-70
2023/08/22 10:43:04;;;;;;;;;;;;;;;-144.99;nan;51940.59;5024447;28;20028;-72
2023/08/22 10:45:36;;;;;;;;;;;;;;;-144.99;nan;51930.41;5023622;28;19950;-68
2023/08/22 10:48:09;;;;;;;;;;;;;;;-144.99;nan;51983.41;5027087;28;20395;-68
2023/08/22 10:50:36;;;;;;;;;;;;;;;-144.99;nan;52016.00;5026498;28;20322;-68
2023/08/22 10:53:11;;;;;;;;;;;;;;;-144.99;nan;51942.63;5026810;28;19972;-68
2023/08/22 10:55:38;;;;;;;;;;;;;;;-144.99;nan;51926.34;5026022;28;20429;-68
2023/08/22 10:58:05;;;;;;;;;;;;;;;-144.99;nan;52028.22;5026304;28;20374;-68
2023/08/22 11:00:31;;;;;;;;;;;;;;;-144.99;nan;51905.97;5027000;28;20299;-68
2023/08/22 11:02:59;;;;;;;;;;;;;;;-144.99;nan;52003.78;5027355;28;19962;-68
2023/08/22 11:05:27;;;;;;;;;;;;;;;-144.99;nan;51926.34;5025680;28;20050;-68
2023/08/22 11:07:53;;;;;;;;;;;;;;;-144.99;nan;51885.56;5026156;28;19954;-68
2023/08/22 11:10:21;;;;;;;;;;;;;;;-144.99;nan;51885.56;5027333;28;19948;-68
2023/08/22 11:12:49;;;;;;;;;;;;;;;-144.99;nan;51973.22;5026489;28;20506;-68
2023/08/22 11:15:15;;;;;;;;;;;;;;;-144.99;nan;51836.66;5025339;28;19947;-69
2023/08/22 11:17:43;;;;;;;;;;;;;;;-144.99;nan;51905.97;5026645;28;20047;-69
2023/08/22 11:20:10;;;;;;;;;;;;;;;-144.99;nan;51865.19;5027345;28;20335;-68
2023/08/22 11:22:40;;;;;;;;;;;;;;;-144.99;nan;51960.97;5026754;28;20006;-68
2023/08/22 11:25:07;;;;;;;;;;;;;;;-144.99;nan;51852.97;5026825;28;19990;-68
2023/08/22 11:27:37;;;;;;;;;;;;;;;-144.99;nan;51844.81;5025718;28;20053;-68
2023/08/22 11:30:03;;;;;;;;;;;;;;;-144.99;nan;51824.44;5027790;28;19949;-68
2023/08/22 11:32:31;;;;;;;;;;;;;;;-144.99;nan;51828.50;5027959;28;20023;-68
2023/08/22 11:34:59;;;;;;;;;;;;;;;-144.99;nan;51795.91;5022668;28;19997;-68
2023/08/22 11:37:26;;;;;;;;;;;;;;;-144.99;nan;51924.28;5022579;28;20073;-68
2023/08/22 11:39:54;;;;;;;;;;;;;;;-144.99;nan;51857.03;5026955;28;19955;-68
2023/08/22 11:42:24;;;;;;;;;;;;;;;-144.99;nan;51877.44;5019248;28;20753;-68
2023/08/22 11:44:54;;;;;;;;;;;;;;;-144.99;nan;51995.63;5026844;28;20414;-68
2023/08/22 11:47:21;;;;;;;;;;;;;;;-144.99;nan;51863.16;5022379;28;20468;-68
2023/08/22 11:49:49;;;;;;;;;;;;;;;-144.99;nan;52020.09;5030298;28;20429;-68
2023/08/22 11:52:15;;;;;;;;;;;;;;;-144.99;nan;52022.13;5026189;28;19965;-68
2023/08/22 11:54:43;;;;;;;;;;;;;;;-144.99;nan;51989.50;5026229;28;20059;-68
2023/08/22 11:57:11;;;;;;;;;;;;;;;-144.99;nan;52044.53;5025220;28;20407;-68
2023/08/22 11:59:40;;;;;;;;;;;;;;;-144.99;nan;51922.25;5025616;28;19975;-68
2023/08/22 12:02:06;;;;;;;;;;;;;;;-144.99;nan;52016.00;5025859;28;19968;-68
2023/08/22 12:04:42;;;;;;;;;;;;;;;-144.99;nan;52024.16;5025880;28;19985;-68
2023/08/22 12:07:09;;;;;;;;;;;;;;;-144.99;nan;51948.75;5023790;28;20320;-68
2023/08/22 12:09:36;;;;;;;;;;;;;;;-144.99;nan;52040.47;5026390;28;19945;-68
2023/08/22 12:12:14;;;;;;;;;;;;;;;-144.99;nan;52038.44;5026452;28;20056;-68
2023/08/22 12:14:40;;;;;;;;;;;;;;;-144.99;nan;52060.84;5021839;28;20037;-68
2023/08/22 12:17:07;;;;;;;;;;;;;;;-144.99;nan;51934.50;5021551;28;20076;-68
2023/08/22 12:19:34;;;;;;;;;;;;;;;-144.99;nan;51926.34;5026263;28;20468;-68
2023/08/22 12:22:00;;;;;;;;;;;;;;;-144.99;nan;51877.44;5023712;28;20013;-68
2023/08/22 12:24:27;;;;;;;;;;;;;;;-144.99;nan;51905.97;5025074;28;20431;-68
2023/08/22 12:26:53;;;;;;;;;;;;;;;-144.99;nan;52044.53;5026792;28;19951;-68
2023/08/22 12:29:21;;;;;;;;;;;;;;;-144.99;nan;52024.16;5019140;28;19998;-68
2023/08/22 12:31:48;;;;;;;;;;;;;;;-144.99;nan;51893.72;5022823;28;20389;-68
2023/08/22 12:34:14;;;;;;;;;;;;;;;-144.99;nan;51901.88;5025168;28;19997;-68
2023/08/22 12:36:41;;;;;;;;;;;;;;;-144.99;nan;51885.56;5026079;28;20232;-68
2023/08/22 12:39:10;;;;;;;;;;;;;;;-144.99;nan;51905.97;5025584;28;20651;-68
2023/08/22 12:41:36;;;;;;;;;;;;;;;-144.99;nan;51859.09;5022868;28;19945;-68
2023/08/22 12:44:03;;;;;;;;;;;;;;;-144.99;nan;51916.16;5025197;28;19989;-68
2023/08/22 12:46:31;;;;;;;;;;;;;;;-144.99;nan;51844.81;5027442;28;20476;-68
2023/08/22 12:48:58;;;;;;;;;;;;;;;-144.99;nan;51881.50;5025396;28;19965;-68